sensor_id;sensor_type;location;lat;lon;timestamp;P1;durP1;ratioP1;P2;durP2;ratioP2
76761;SDS011;65705;51.032;13.790;2023-05-01T00:00:16;17.45;;;9.65;;
76761;SDS011;65705;51.032;13.790;2023-05-01T00:02:46;17.83;;;8.82;;
76761;SDS011;65705;51.032;13.790;2023-05-01T00:05:12;20.42;;;9.63;;
76761;SDS011;65705;51.032;13.790;2023-05-01T00:07:37;21.73;;;9.00;;
76761;SDS011;65705;51.032;13.790;2023-05-01T00:10:03;16.58;;;8.00;;
76761;SDS011;65705;51.032;13.790;2023-05-01T00:12:29;16.67;;;7.88;;
76761;SDS011;65705;51.032;13.790;2023-05-01T00:14:55;15.57;;;8.02;;
76761;SDS011;65705;51.032;13.790;2023-05-01T00:17:21;17.05;;;7.80;;
76761;SDS011;65705;51.032;13.790;2023-05-01T00:19:51;15.45;;;7.38;;
76761;SDS011;65705;51.032;13.790;2023-05-01T00:22:17;15.30;;;7.15;;
76761;SDS011;65705;51.032;13.790;2023-05-01T00:24:43;13.63;;;7.00;;
76761;SDS011;65705;51.032;13.790;2023-05-01T00:27:09;16.17;;;7.22;;
76761;SDS011;65705;51.032;13.790;2023-05-01T00:29:35;13.55;;;7.00;;
76761;SDS011;65705;51.032;13.790;2023-05-01T00:32:01;12.63;;;6.70;;
76761;SDS011;65705;51.032;13.790;2023-05-01T00:34:27;13.73;;;6.40;;
76761;SDS011;65705;51.032;13.790;2023-05-01T00:36:53;15.65;;;7.68;;
76761;SDS011;65705;51.032;13.790;2023-05-01T00:39:18;14.60;;;7.15;;
76761;SDS011;65705;51.032;13.790;2023-05-01T00:41:44;14.35;;;7.20;;
76761;SDS011;65705;51.032;13.790;2023-05-01T00:44:10;14.85;;;6.80;;
76761;SDS011;65705;51.032;13.790;2023-05-01T00:46:36;17.33;;;7.97;;
76761;SDS011;65705;51.032;13.790;2023-05-01T00:49:02;20.27;;;8.93;;
76761;SDS011;65705;51.032;13.790;2023-05-01T00:51:28;13.43;;;6.88;;
76761;SDS011;65705;51.032;13.790;2023-05-01T00:53:56;15.23;;;6.95;;
76761;SDS011;65705;51.032;13.790;2023-05-01T00:56:24;14.93;;;7.40;;
76761;SDS011;65705;51.032;13.790;2023-05-01T00:58:50;16.98;;;7.20;;
76761;SDS011;65705;51.032;13.790;2023-05-01T01:01:18;17.45;;;7.72;;
76761;SDS011;65705;51.032;13.790;2023-05-01T01:03:48;16.23;;;7.65;;
76761;SDS011;65705;51.032;13.790;2023-05-01T01:06:32;14.57;;;7.20;;
76761;SDS011;65705;51.032;13.790;2023-05-01T01:09:10;17.08;;;7.43;;
76761;SDS011;65705;51.032;13.790;2023-05-01T01:12:29;13.73;;;7.32;;
76761;SDS011;65705;51.032;13.790;2023-05-01T01:14:44;16.58;;;7.07;;
76761;SDS011;65705;51.032;13.790;2023-05-01T01:17:13;18.33;;;7.20;;
76761;SDS011;65705;51.032;13.790;2023-05-01T01:22:14;16.83;;;7.32;;
76761;SDS011;65705;51.032;13.790;2023-05-01T01:35:29;22.42;;;7.65;;
76761;SDS011;65705;51.032;13.790;2023-05-01T01:37:59;20.90;;;8.77;;
76761;SDS011;65705;51.032;13.790;2023-05-01T01:40:34;16.50;;;7.82;;
76761;SDS011;65705;51.032;13.790;2023-05-01T01:43:07;18.02;;;8.20;;
76761;SDS011;65705;51.032;13.790;2023-05-01T01:45:41;18.27;;;7.78;;
76761;SDS011;65705;51.032;13.790;2023-05-01T01:48:12;17.23;;;7.80;;
76761;SDS011;65705;51.032;13.790;2023-05-01T01:50:42;17.65;;;7.45;;
76761;SDS011;65705;51.032;13.790;2023-05-01T01:53:12;15.70;;;6.85;;
76761;SDS011;65705;51.032;13.790;2023-05-01T01:55:42;12.20;;;6.78;;
76761;SDS011;65705;51.032;13.790;2023-05-01T01:58:10;28.63;;;9.30;;
76761;SDS011;65705;51.032;13.790;2023-05-01T02:00:38;24.67;;;9.23;;
76761;SDS011;65705;51.032;13.790;2023-05-01T02:03:06;18.40;;;7.93;;
76761;SDS011;65705;51.032;13.790;2023-05-01T02:05:35;21.90;;;9.02;;
76761;SDS011;65705;51.032;13.790;2023-05-01T02:08:02;24.67;;;9.98;;
76761;SDS011;65705;51.032;13.790;2023-05-01T02:10:30;22.85;;;8.85;;
76761;SDS011;65705;51.032;13.790;2023-05-01T02:12:58;19.13;;;7.72;;
76761;SDS011;65705;51.032;13.790;2023-05-01T02:15:26;18.77;;;8.23;;
76761;SDS011;65705;51.032;13.790;2023-05-01T02:17:53;16.23;;;7.13;;
76761;SDS011;65705;51.032;13.790;2023-05-01T02:20:20;16.17;;;7.97;;
76761;SDS011;65705;51.032;13.790;2023-05-01T02:22:46;15.02;;;7.10;;
76761;SDS011;65705;51.032;13.790;2023-05-01T02:25:13;14.77;;;6.80;;
76761;SDS011;65705;51.032;13.790;2023-05-01T02:27:45;20.00;;;7.00;;
76761;SDS011;65705;51.032;13.790;2023-05-01T02:30:15;16.60;;;6.60;;
76761;SDS011;65705;51.032;13.790;2023-05-01T02:32:43;17.60;;;7.18;;
76761;SDS011;65705;51.032;13.790;2023-05-01T02:35:09;17.88;;;7.65;;
76761;SDS011;65705;51.032;13.790;2023-05-01T02:37:36;26.83;;;9.52;;
76761;SDS011;65705;51.032;13.790;2023-05-01T02:40:03;27.70;;;10.23;;
76761;SDS011;65705;51.032;13.790;2023-05-01T02:42:30;23.30;;;9.48;;
76761;SDS011;65705;51.032;13.790;2023-05-01T02:45:04;15.27;;;7.05;;
76761;SDS011;65705;51.032;13.790;2023-05-01T02:47:36;13.63;;;5.95;;
76761;SDS011;65705;51.032;13.790;2023-05-01T02:50:04;15.55;;;6.35;;
76761;SDS011;65705;51.032;13.790;2023-05-01T02:52:32;13.65;;;6.50;;
76761;SDS011;65705;51.032;13.790;2023-05-01T02:55:17;15.27;;;6.90;;
76761;SDS011;65705;51.032;13.790;2023-05-01T02:57:43;16.00;;;6.53;;
76761;SDS011;65705;51.032;13.790;2023-05-01T03:00:09;16.20;;;6.97;;
76761;SDS011;65705;51.032;13.790;2023-05-01T03:02:41;17.70;;;6.50;;
76761;SDS011;65705;51.032;13.790;2023-05-01T03:05:07;15.82;;;6.28;;
76761;SDS011;65705;51.032;13.790;2023-05-01T03:07:33;17.02;;;8.02;;
76761;SDS011;65705;51.032;13.790;2023-05-01T03:10:00;13.50;;;7.00;;
76761;SDS011;65705;51.032;13.790;2023-05-01T03:12:29;13.85;;;6.85;;
76761;SDS011;65705;51.032;13.790;2023-05-01T03:14:55;12.15;;;6.38;;
76761;SDS011;65705;51.032;13.790;2023-05-01T03:17:21;14.20;;;6.70;;
76761;SDS011;65705;51.032;13.790;2023-05-01T03:19:47;15.15;;;6.45;;
76761;SDS011;65705;51.032;13.790;2023-05-01T03:22:14;15.68;;;7.40;;
76761;SDS011;65705;51.032;13.790;2023-05-01T03:24:40;19.80;;;8.07;;
76761;SDS011;65705;51.032;13.790;2023-05-01T03:27:06;17.70;;;7.82;;
76761;SDS011;65705;51.032;13.790;2023-05-01T03:29:33;16.77;;;7.75;;
76761;SDS011;65705;51.032;13.790;2023-05-01T03:32:02;16.83;;;8.05;;
76761;SDS011;65705;51.032;13.790;2023-05-01T03:34:28;18.95;;;7.28;;
76761;SDS011;65705;51.032;13.790;2023-05-01T03:36:54;19.77;;;8.02;;
76761;SDS011;65705;51.032;13.790;2023-05-01T03:39:21;15.77;;;8.10;;
76761;SDS011;65705;51.032;13.790;2023-05-01T03:42:07;17.98;;;7.80;;
76761;SDS011;65705;51.032;13.790;2023-05-01T03:44:38;17.88;;;8.57;;
76761;SDS011;65705;51.032;13.790;2023-05-01T03:47:04;15.38;;;8.05;;
76761;SDS011;65705;51.032;13.790;2023-05-01T03:49:33;22.23;;;9.10;;
76761;SDS011;65705;51.032;13.790;2023-05-01T03:51:58;17.83;;;8.77;;
76761;SDS011;65705;51.032;13.790;2023-05-01T03:54:25;27.48;;;9.80;;
76761;SDS011;65705;51.032;13.790;2023-05-01T03:56:56;19.08;;;9.18;;
76761;SDS011;65705;51.032;13.790;2023-05-01T03:59:22;22.88;;;10.27;;
76761;SDS011;65705;51.032;13.790;2023-05-01T04:01:49;21.15;;;9.50;;
76761;SDS011;65705;51.032;13.790;2023-05-01T04:04:15;22.90;;;10.18;;
76761;SDS011;65705;51.032;13.790;2023-05-01T04:06:44;21.75;;;9.20;;
76761;SDS011;65705;51.032;13.790;2023-05-01T04:09:10;19.55;;;9.07;;
76761;SDS011;65705;51.032;13.790;2023-05-01T04:11:36;19.27;;;10.18;;
76761;SDS011;65705;51.032;13.790;2023-05-01T04:14:02;18.42;;;9.38;;
76761;SDS011;65705;51.032;13.790;2023-05-01T04:16:29;19.48;;;9.60;;
76761;SDS011;65705;51.032;13.790;2023-05-01T04:18:55;19.92;;;9.23;;
76761;SDS011;65705;51.032;13.790;2023-05-01T04:21:21;20.52;;;10.23;;
76761;SDS011;65705;51.032;13.790;2023-05-01T04:23:49;26.17;;;10.85;;
76761;SDS011;65705;51.032;13.790;2023-05-01T04:26:16;21.85;;;10.20;;
76761;SDS011;65705;51.032;13.790;2023-05-01T04:28:41;23.90;;;10.93;;
76761;SDS011;65705;51.032;13.790;2023-05-01T04:31:09;22.63;;;10.68;;
76761;SDS011;65705;51.032;13.790;2023-05-01T04:33:35;22.27;;;10.20;;
76761;SDS011;65705;51.032;13.790;2023-05-01T04:36:01;25.27;;;10.63;;
76761;SDS011;65705;51.032;13.790;2023-05-01T04:38:27;26.55;;;11.07;;
76761;SDS011;65705;51.032;13.790;2023-05-01T04:40:55;20.40;;;10.05;;
76761;SDS011;65705;51.032;13.790;2023-05-01T04:43:21;21.52;;;10.70;;
76761;SDS011;65705;51.032;13.790;2023-05-01T04:45:47;23.73;;;10.45;;
76761;SDS011;65705;51.032;13.790;2023-05-01T04:48:13;23.55;;;10.98;;
76761;SDS011;65705;51.032;13.790;2023-05-01T04:50:39;22.15;;;10.73;;
76761;SDS011;65705;51.032;13.790;2023-05-01T04:53:05;25.48;;;10.13;;
76761;SDS011;65705;51.032;13.790;2023-05-01T04:55:33;20.27;;;10.32;;
76761;SDS011;65705;51.032;13.790;2023-05-01T04:58:04;24.67;;;10.60;;
76761;SDS011;65705;51.032;13.790;2023-05-01T05:00:31;25.80;;;10.55;;
76761;SDS011;65705;51.032;13.790;2023-05-01T05:02:57;22.73;;;10.40;;
76761;SDS011;65705;51.032;13.790;2023-05-01T05:05:24;22.25;;;10.65;;
76761;SDS011;65705;51.032;13.790;2023-05-01T05:07:50;20.98;;;10.20;;
76761;SDS011;65705;51.032;13.790;2023-05-01T05:10:31;21.42;;;10.05;;
76761;SDS011;65705;51.032;13.790;2023-05-01T05:13:26;22.23;;;10.40;;
76761;SDS011;65705;51.032;13.790;2023-05-01T05:16:01;22.52;;;9.85;;
76761;SDS011;65705;51.032;13.790;2023-05-01T05:18:27;25.00;;;10.52;;
76761;SDS011;65705;51.032;13.790;2023-05-01T05:20:54;23.25;;;10.70;;
76761;SDS011;65705;51.032;13.790;2023-05-01T05:23:20;20.30;;;10.77;;
76761;SDS011;65705;51.032;13.790;2023-05-01T05:25:46;23.95;;;11.15;;
76761;SDS011;65705;51.032;13.790;2023-05-01T05:28:11;22.40;;;10.75;;
76761;SDS011;65705;51.032;13.790;2023-05-01T05:30:38;25.58;;;10.30;;
76761;SDS011;65705;51.032;13.790;2023-05-01T05:33:06;20.40;;;10.52;;
76761;SDS011;65705;51.032;13.790;2023-05-01T05:35:33;21.52;;;10.40;;
76761;SDS011;65705;51.032;13.790;2023-05-01T05:38:00;22.25;;;9.88;;
76761;SDS011;65705;51.032;13.790;2023-05-01T05:40:27;24.08;;;11.93;;
76761;SDS011;65705;51.032;13.790;2023-05-01T05:42:55;23.75;;;11.38;;
76761;SDS011;65705;51.032;13.790;2023-05-01T05:45:23;24.08;;;11.40;;
76761;SDS011;65705;51.032;13.790;2023-05-01T05:47:48;21.25;;;12.07;;
76761;SDS011;65705;51.032;13.790;2023-05-01T05:50:14;23.90;;;12.10;;
76761;SDS011;65705;51.032;13.790;2023-05-01T05:52:42;22.55;;;11.52;;
76761;SDS011;65705;51.032;13.790;2023-05-01T05:55:08;27.35;;;12.27;;
76761;SDS011;65705;51.032;13.790;2023-05-01T05:57:35;21.80;;;11.88;;
76761;SDS011;65705;51.032;13.790;2023-05-01T06:00:04;26.70;;;12.27;;
76761;SDS011;65705;51.032;13.790;2023-05-01T06:02:37;26.52;;;12.30;;
76761;SDS011;65705;51.032;13.790;2023-05-01T06:05:05;25.65;;;11.93;;
76761;SDS011;65705;51.032;13.790;2023-05-01T06:07:31;22.83;;;11.98;;
76761;SDS011;65705;51.032;13.790;2023-05-01T06:09:56;22.15;;;11.25;;
76761;SDS011;65705;51.032;13.790;2023-05-01T06:12:28;22.63;;;11.32;;
76761;SDS011;65705;51.032;13.790;2023-05-01T06:14:57;21.98;;;11.02;;
76761;SDS011;65705;51.032;13.790;2023-05-01T06:17:23;23.27;;;11.32;;
76761;SDS011;65705;51.032;13.790;2023-05-01T06:19:50;21.33;;;10.43;;
76761;SDS011;65705;51.032;13.790;2023-05-01T06:22:19;21.70;;;10.05;;
76761;SDS011;65705;51.032;13.790;2023-05-01T06:24:59;23.15;;;10.23;;
76761;SDS011;65705;51.032;13.790;2023-05-01T06:27:27;25.25;;;10.40;;
76761;SDS011;65705;51.032;13.790;2023-05-01T06:29:54;24.10;;;10.50;;
76761;SDS011;65705;51.032;13.790;2023-05-01T06:32:20;21.80;;;10.57;;
76761;SDS011;65705;51.032;13.790;2023-05-01T06:34:46;21.17;;;9.75;;
76761;SDS011;65705;51.032;13.790;2023-05-01T06:37:14;22.60;;;10.27;;
76761;SDS011;65705;51.032;13.790;2023-05-01T06:39:40;21.27;;;9.23;;
76761;SDS011;65705;51.032;13.790;2023-05-01T06:42:06;21.13;;;9.90;;
76761;SDS011;65705;51.032;13.790;2023-05-01T06:44:37;24.50;;;9.35;;
76761;SDS011;65705;51.032;13.790;2023-05-01T06:47:03;20.48;;;9.10;;
76761;SDS011;65705;51.032;13.790;2023-05-01T06:49:29;22.15;;;9.15;;
76761;SDS011;65705;51.032;13.790;2023-05-01T06:51:55;17.52;;;8.15;;
76761;SDS011;65705;51.032;13.790;2023-05-01T06:54:21;21.83;;;7.97;;
76761;SDS011;65705;51.032;13.790;2023-05-01T06:56:47;16.10;;;7.82;;
76761;SDS011;65705;51.032;13.790;2023-05-01T06:59:12;15.55;;;7.15;;
76761;SDS011;65705;51.032;13.790;2023-05-01T07:01:38;16.73;;;7.18;;
76761;SDS011;65705;51.032;13.790;2023-05-01T07:04:04;15.23;;;7.03;;
76761;SDS011;65705;51.032;13.790;2023-05-01T07:06:29;14.27;;;6.43;;
76761;SDS011;65705;51.032;13.790;2023-05-01T07:08:56;16.15;;;6.40;;
76761;SDS011;65705;51.032;13.790;2023-05-01T07:11:22;17.35;;;6.57;;
76761;SDS011;65705;51.032;13.790;2023-05-01T07:13:48;14.95;;;6.35;;
76761;SDS011;65705;51.032;13.790;2023-05-01T07:16:13;16.17;;;6.20;;
76761;SDS011;65705;51.032;13.790;2023-05-01T07:18:39;13.65;;;5.53;;
76761;SDS011;65705;51.032;13.790;2023-05-01T07:21:05;15.90;;;5.18;;
76761;SDS011;65705;51.032;13.790;2023-05-01T07:23:30;11.68;;;5.38;;
76761;SDS011;65705;51.032;13.790;2023-05-01T07:25:56;18.35;;;7.03;;
76761;SDS011;65705;51.032;13.790;2023-05-01T07:28:22;13.13;;;6.20;;
76761;SDS011;65705;51.032;13.790;2023-05-01T07:30:48;14.60;;;6.85;;
76761;SDS011;65705;51.032;13.790;2023-05-01T07:33:13;11.88;;;5.35;;
76761;SDS011;65705;51.032;13.790;2023-05-01T07:35:39;11.77;;;4.97;;
76761;SDS011;65705;51.032;13.790;2023-05-01T07:38:05;14.75;;;5.28;;
76761;SDS011;65705;51.032;13.790;2023-05-01T07:40:32;12.88;;;4.43;;
76761;SDS011;65705;51.032;13.790;2023-05-01T07:42:59;9.82;;;4.13;;
76761;SDS011;65705;51.032;13.790;2023-05-01T07:45:25;12.02;;;4.75;;
76761;SDS011;65705;51.032;13.790;2023-05-01T07:47:51;10.68;;;4.82;;
76761;SDS011;65705;51.032;13.790;2023-05-01T07:50:16;10.38;;;4.50;;
76761;SDS011;65705;51.032;13.790;2023-05-01T07:52:42;15.18;;;4.72;;
76761;SDS011;65705;51.032;13.790;2023-05-01T07:55:08;9.15;;;3.70;;
76761;SDS011;65705;51.032;13.790;2023-05-01T07:57:34;11.55;;;4.18;;
76761;SDS011;65705;51.032;13.790;2023-05-01T08:00:00;13.90;;;3.47;;
76761;SDS011;65705;51.032;13.790;2023-05-01T08:02:26;9.50;;;3.85;;
76761;SDS011;65705;51.032;13.790;2023-05-01T08:04:51;9.38;;;3.33;;
76761;SDS011;65705;51.032;13.790;2023-05-01T08:07:17;7.63;;;3.75;;
76761;SDS011;65705;51.032;13.790;2023-05-01T08:09:44;10.10;;;2.95;;
76761;SDS011;65705;51.032;13.790;2023-05-01T08:12:10;12.00;;;5.60;;
76761;SDS011;65705;51.032;13.790;2023-05-01T08:14:39;16.42;;;6.15;;
76761;SDS011;65705;51.032;13.790;2023-05-01T08:17:05;10.95;;;3.83;;
76761;SDS011;65705;51.032;13.790;2023-05-01T08:19:31;9.00;;;3.65;;
76761;SDS011;65705;51.032;13.790;2023-05-01T08:21:57;8.30;;;3.35;;
76761;SDS011;65705;51.032;13.790;2023-05-01T08:24:23;9.50;;;3.38;;
76761;SDS011;65705;51.032;13.790;2023-05-01T08:26:49;12.55;;;3.45;;
76761;SDS011;65705;51.032;13.790;2023-05-01T08:29:15;8.07;;;3.08;;
76761;SDS011;65705;51.032;13.790;2023-05-01T08:31:41;12.20;;;3.42;;
76761;SDS011;65705;51.032;13.790;2023-05-01T08:34:08;10.80;;;3.42;;
76761;SDS011;65705;51.032;13.790;2023-05-01T08:36:33;13.45;;;3.67;;
76761;SDS011;65705;51.032;13.790;2023-05-01T08:39:00;8.82;;;3.67;;
76761;SDS011;65705;51.032;13.790;2023-05-01T08:41:26;9.30;;;3.40;;
76761;SDS011;65705;51.032;13.790;2023-05-01T08:43:55;7.78;;;3.15;;
76761;SDS011;65705;51.032;13.790;2023-05-01T08:46:28;8.38;;;3.15;;
76761;SDS011;65705;51.032;13.790;2023-05-01T08:49:09;9.35;;;3.17;;
76761;SDS011;65705;51.032;13.790;2023-05-01T08:51:39;9.43;;;3.28;;
76761;SDS011;65705;51.032;13.790;2023-05-01T08:54:08;9.20;;;3.60;;
76761;SDS011;65705;51.032;13.790;2023-05-01T08:56:35;12.65;;;3.40;;
76761;SDS011;65705;51.032;13.790;2023-05-01T08:59:03;7.70;;;3.30;;
76761;SDS011;65705;51.032;13.790;2023-05-01T09:01:29;9.95;;;3.65;;
76761;SDS011;65705;51.032;13.790;2023-05-01T09:03:57;13.15;;;3.20;;
76761;SDS011;65705;51.032;13.790;2023-05-01T09:06:24;10.05;;;3.78;;
76761;SDS011;65705;51.032;13.790;2023-05-01T09:08:52;10.10;;;3.30;;
76761;SDS011;65705;51.032;13.790;2023-05-01T09:11:18;8.88;;;3.38;;
76761;SDS011;65705;51.032;13.790;2023-05-01T09:13:44;9.48;;;3.10;;
76761;SDS011;65705;51.032;13.790;2023-05-01T09:16:11;9.73;;;3.45;;
76761;SDS011;65705;51.032;13.790;2023-05-01T09:18:37;8.60;;;3.55;;
76761;SDS011;65705;51.032;13.790;2023-05-01T09:21:04;11.07;;;3.33;;
76761;SDS011;65705;51.032;13.790;2023-05-01T09:23:30;9.80;;;3.80;;
76761;SDS011;65705;51.032;13.790;2023-05-01T09:25:56;10.23;;;3.60;;
76761;SDS011;65705;51.032;13.790;2023-05-01T09:28:42;9.35;;;3.45;;
76761;SDS011;65705;51.032;13.790;2023-05-01T09:31:19;9.57;;;3.45;;
76761;SDS011;65705;51.032;13.790;2023-05-01T09:33:53;7.43;;;3.53;;
76761;SDS011;65705;51.032;13.790;2023-05-01T09:36:31;9.60;;;3.47;;
76761;SDS011;65705;51.032;13.790;2023-05-01T09:38:58;10.02;;;3.17;;
76761;SDS011;65705;51.032;13.790;2023-05-01T09:41:24;9.55;;;3.70;;
76761;SDS011;65705;51.032;13.790;2023-05-01T09:43:55;8.75;;;3.22;;
76761;SDS011;65705;51.032;13.790;2023-05-01T09:46:22;7.95;;;2.92;;
76761;SDS011;65705;51.032;13.790;2023-05-01T09:53:48;7.07;;;3.03;;
76761;SDS011;65705;51.032;13.790;2023-05-01T09:56:14;7.30;;;3.00;;
76761;SDS011;65705;51.032;13.790;2023-05-01T09:58:40;9.40;;;3.28;;
76761;SDS011;65705;51.032;13.790;2023-05-01T10:01:06;10.18;;;3.13;;
76761;SDS011;65705;51.032;13.790;2023-05-01T10:03:35;7.15;;;2.97;;
76761;SDS011;65705;51.032;13.790;2023-05-01T10:06:01;9.20;;;3.08;;
76761;SDS011;65705;51.032;13.790;2023-05-01T10:11:10;9.82;;;2.92;;
76761;SDS011;65705;51.032;13.790;2023-05-01T10:13:36;9.43;;;2.88;;
76761;SDS011;65705;51.032;13.790;2023-05-01T10:16:02;7.63;;;3.10;;
76761;SDS011;65705;51.032;13.790;2023-05-01T10:18:34;8.52;;;2.72;;
76761;SDS011;65705;51.032;13.790;2023-05-01T10:21:00;7.70;;;2.47;;
76761;SDS011;65705;51.032;13.790;2023-05-01T10:23:27;6.65;;;2.38;;
76761;SDS011;65705;51.032;13.790;2023-05-01T10:25:53;15.73;;;2.75;;
76761;SDS011;65705;51.032;13.790;2023-05-01T10:28:20;11.13;;;2.70;;
76761;SDS011;65705;51.032;13.790;2023-05-01T10:30:49;8.13;;;2.50;;
76761;SDS011;65705;51.032;13.790;2023-05-01T10:33:15;8.23;;;2.78;;
76761;SDS011;65705;51.032;13.790;2023-05-01T10:35:47;8.05;;;2.47;;
76761;SDS011;65705;51.032;13.790;2023-05-01T10:38:21;8.77;;;3.00;;
76761;SDS011;65705;51.032;13.790;2023-05-01T10:40:49;8.15;;;2.40;;
76761;SDS011;65705;51.032;13.790;2023-05-01T10:45:45;6.63;;;2.38;;
76761;SDS011;65705;51.032;13.790;2023-05-01T10:48:50;7.53;;;2.30;;
76761;SDS011;65705;51.032;13.790;2023-05-01T10:51:16;8.38;;;2.65;;
76761;SDS011;65705;51.032;13.790;2023-05-01T10:53:45;8.43;;;4.45;;
76761;SDS011;65705;51.032;13.790;2023-05-01T11:01:30;10.50;;;2.60;;
76761;SDS011;65705;51.032;13.790;2023-05-01T11:03:59;6.70;;;2.60;;
76761;SDS011;65705;51.032;13.790;2023-05-01T11:08:54;7.22;;;2.22;;
76761;SDS011;65705;51.032;13.790;2023-05-01T11:13:56;6.45;;;2.33;;
76761;SDS011;65705;51.032;13.790;2023-05-01T11:19:07;4.60;;;2.00;;
76761;SDS011;65705;51.032;13.790;2023-05-01T11:21:34;5.32;;;2.10;;
76761;SDS011;65705;51.032;13.790;2023-05-01T11:26:28;5.32;;;2.28;;
76761;SDS011;65705;51.032;13.790;2023-05-01T11:28:56;7.43;;;2.55;;
76761;SDS011;65705;51.032;13.790;2023-05-01T11:31:24;5.40;;;2.70;;
76761;SDS011;65705;51.032;13.790;2023-05-01T11:33:51;11.48;;;3.80;;
76761;SDS011;65705;51.032;13.790;2023-05-01T11:36:20;10.60;;;3.22;;
76761;SDS011;65705;51.032;13.790;2023-05-01T11:38:52;9.32;;;3.60;;
76761;SDS011;65705;51.032;13.790;2023-05-01T11:41:23;6.18;;;2.20;;
76761;SDS011;65705;51.032;13.790;2023-05-01T11:43:54;7.43;;;2.50;;
76761;SDS011;65705;51.032;13.790;2023-05-01T11:46:25;8.70;;;2.67;;
76761;SDS011;65705;51.032;13.790;2023-05-01T11:48:55;5.90;;;2.15;;
76761;SDS011;65705;51.032;13.790;2023-05-01T11:51:22;7.97;;;2.50;;
76761;SDS011;65705;51.032;13.790;2023-05-01T11:54:05;6.32;;;2.58;;
76761;SDS011;65705;51.032;13.790;2023-05-01T11:56:32;8.10;;;2.65;;
76761;SDS011;65705;51.032;13.790;2023-05-01T11:59:07;4.68;;;2.00;;
76761;SDS011;65705;51.032;13.790;2023-05-01T12:01:38;10.05;;;2.70;;
76761;SDS011;65705;51.032;13.790;2023-05-01T12:04:06;7.78;;;2.92;;
76761;SDS011;65705;51.032;13.790;2023-05-01T12:09:18;7.47;;;2.17;;
76761;SDS011;65705;51.032;13.790;2023-05-01T12:11:49;5.50;;;1.90;;
76761;SDS011;65705;51.032;13.790;2023-05-01T12:14:16;5.82;;;1.92;;
76761;SDS011;65705;51.032;13.790;2023-05-01T12:16:43;9.75;;;2.67;;
76761;SDS011;65705;51.032;13.790;2023-05-01T12:19:11;6.70;;;1.77;;
76761;SDS011;65705;51.032;13.790;2023-05-01T12:21:38;5.70;;;1.90;;
76761;SDS011;65705;51.032;13.790;2023-05-01T12:24:11;7.18;;;2.30;;
76761;SDS011;65705;51.032;13.790;2023-05-01T12:26:40;8.65;;;2.13;;
76761;SDS011;65705;51.032;13.790;2023-05-01T12:29:07;10.45;;;4.40;;
76761;SDS011;65705;51.032;13.790;2023-05-01T12:31:34;5.15;;;1.80;;
76761;SDS011;65705;51.032;13.790;2023-05-01T12:34:04;6.65;;;1.80;;
76761;SDS011;65705;51.032;13.790;2023-05-01T12:36:32;4.03;;;1.75;;
76761;SDS011;65705;51.032;13.790;2023-05-01T12:39:04;6.95;;;1.92;;
76761;SDS011;65705;51.032;13.790;2023-05-01T12:41:41;3.83;;;1.65;;
76761;SDS011;65705;51.032;13.790;2023-05-01T12:46:53;4.53;;;1.48;;
76761;SDS011;65705;51.032;13.790;2023-05-01T12:49:20;7.28;;;1.90;;
76761;SDS011;65705;51.032;13.790;2023-05-01T12:51:47;6.70;;;2.10;;
76761;SDS011;65705;51.032;13.790;2023-05-01T12:56:49;6.03;;;1.77;;
76761;SDS011;65705;51.032;13.790;2023-05-01T12:59:21;5.65;;;1.70;;
76761;SDS011;65705;51.032;13.790;2023-05-01T13:02:04;6.95;;;1.48;;
76761;SDS011;65705;51.032;13.790;2023-05-01T13:04:31;5.57;;;1.50;;
76761;SDS011;65705;51.032;13.790;2023-05-01T13:06:57;4.18;;;1.48;;
76761;SDS011;65705;51.032;13.790;2023-05-01T13:09:25;4.63;;;1.60;;
76761;SDS011;65705;51.032;13.790;2023-05-01T13:11:58;3.95;;;1.55;;
76761;SDS011;65705;51.032;13.790;2023-05-01T13:14:39;5.45;;;1.77;;
76761;SDS011;65705;51.032;13.790;2023-05-01T13:17:06;4.28;;;1.40;;
76761;SDS011;65705;51.032;13.790;2023-05-01T13:19:36;6.53;;;1.65;;
76761;SDS011;65705;51.032;13.790;2023-05-01T13:22:03;5.05;;;1.55;;
76761;SDS011;65705;51.032;13.790;2023-05-01T13:24:34;7.38;;;2.42;;
76761;SDS011;65705;51.032;13.790;2023-05-01T13:27:04;6.22;;;2.83;;
76761;SDS011;65705;51.032;13.790;2023-05-01T13:29:31;9.63;;;2.33;;
76761;SDS011;65705;51.032;13.790;2023-05-01T13:31:57;5.57;;;2.03;;
76761;SDS011;65705;51.032;13.790;2023-05-01T13:34:29;4.03;;;1.58;;
76761;SDS011;65705;51.032;13.790;2023-05-01T13:36:56;4.47;;;1.52;;
76761;SDS011;65705;51.032;13.790;2023-05-01T13:39:23;5.97;;;1.83;;
76761;SDS011;65705;51.032;13.790;2023-05-01T13:41:49;7.47;;;1.60;;
76761;SDS011;65705;51.032;13.790;2023-05-01T13:44:16;4.63;;;1.65;;
76761;SDS011;65705;51.032;13.790;2023-05-01T13:46:43;8.98;;;1.63;;
76761;SDS011;65705;51.032;13.790;2023-05-01T13:49:09;5.03;;;1.80;;
76761;SDS011;65705;51.032;13.790;2023-05-01T13:51:36;3.45;;;1.30;;
76761;SDS011;65705;51.032;13.790;2023-05-01T13:54:07;4.00;;;1.40;;
76761;SDS011;65705;51.032;13.790;2023-05-01T13:56:38;5.90;;;1.33;;
76761;SDS011;65705;51.032;13.790;2023-05-01T13:59:05;7.10;;;1.45;;
76761;SDS011;65705;51.032;13.790;2023-05-01T14:01:35;5.25;;;1.52;;
76761;SDS011;65705;51.032;13.790;2023-05-01T14:04:09;4.85;;;1.33;;
76761;SDS011;65705;51.032;13.790;2023-05-01T14:06:39;7.35;;;2.90;;
76761;SDS011;65705;51.032;13.790;2023-05-01T14:09:07;9.18;;;4.57;;
76761;SDS011;65705;51.032;13.790;2023-05-01T14:11:33;8.88;;;1.70;;
76761;SDS011;65705;51.032;13.790;2023-05-01T14:13:58;9.00;;;1.98;;
76761;SDS011;65705;51.032;13.790;2023-05-01T14:16:27;4.80;;;1.35;;
76761;SDS011;65705;51.032;13.790;2023-05-01T14:18:55;3.92;;;1.17;;
76761;SDS011;65705;51.032;13.790;2023-05-01T14:21:22;4.20;;;1.38;;
76761;SDS011;65705;51.032;13.790;2023-05-01T14:23:53;5.57;;;1.60;;
76761;SDS011;65705;51.032;13.790;2023-05-01T14:26:20;3.35;;;1.52;;
76761;SDS011;65705;51.032;13.790;2023-05-01T14:28:48;4.18;;;1.35;;
76761;SDS011;65705;51.032;13.790;2023-05-01T14:31:24;3.08;;;1.48;;
76761;SDS011;65705;51.032;13.790;2023-05-01T14:36:24;5.30;;;1.60;;
76761;SDS011;65705;51.032;13.790;2023-05-01T14:38:56;4.57;;;1.40;;
76761;SDS011;65705;51.032;13.790;2023-05-01T14:41:22;3.90;;;1.30;;
76761;SDS011;65705;51.032;13.790;2023-05-01T14:43:49;6.68;;;1.40;;
76761;SDS011;65705;51.032;13.790;2023-05-01T14:46:21;4.85;;;1.85;;
76761;SDS011;65705;51.032;13.790;2023-05-01T14:48:58;4.25;;;1.40;;
76761;SDS011;65705;51.032;13.790;2023-05-01T14:51:25;6.28;;;1.52;;
76761;SDS011;65705;51.032;13.790;2023-05-01T14:53:52;4.57;;;1.42;;
76761;SDS011;65705;51.032;13.790;2023-05-01T14:56:18;6.00;;;2.20;;
76761;SDS011;65705;51.032;13.790;2023-05-01T14:58:44;5.88;;;2.17;;
76761;SDS011;65705;51.032;13.790;2023-05-01T15:01:12;7.35;;;3.38;;
76761;SDS011;65705;51.032;13.790;2023-05-01T15:03:38;4.22;;;1.80;;
76761;SDS011;65705;51.032;13.790;2023-05-01T15:06:06;4.28;;;1.30;;
76761;SDS011;65705;51.032;13.790;2023-05-01T15:08:33;8.07;;;1.88;;
76761;SDS011;65705;51.032;13.790;2023-05-01T15:11:01;3.40;;;1.58;;
76761;SDS011;65705;51.032;13.790;2023-05-01T15:13:27;6.45;;;1.83;;
76761;SDS011;65705;51.032;13.790;2023-05-01T15:15:53;4.70;;;1.42;;
76761;SDS011;65705;51.032;13.790;2023-05-01T15:18:20;4.15;;;1.60;;